Time;durP1;ratioP1;P1;durP2;ratioP2;P2;SDS_P1;SDS_P2;PMS_P1;PMS_P2;Temp;Humidity;BMP_temperature;BMP_pressure;BME280_temperature;BME280_humidity;BME280_pressure;Samples;Min_cycle;Max_cycle;Signal;HPM_P1;HPM_P2
2023/04/02 00:03:09;;;;;;;18.50;14.53;;;5.50;99.90;;;;;;8340524;28;20194;-69
2023/04/02 00:07:30;;;;;;;16.70;12.77;;;5.50;99.90;;;;;;8346345;28;20627;-68
2023/04/02 00:11:36;;;;;;;16.23;12.80;;;5.40;99.90;;;;;;8338770;28;20309;-69
2023/04/02 00:15:43;;;;;;;14.30;11.57;;;5.30;99.90;;;;;;8331441;28;20204;-68
2023/04/02 00:19:46;;;;;;;19.43;14.30;;;5.30;99.90;;;;;;8335593;28;20207;-68
2023/04/02 00:23:47;;;;;;;17.67;14.03;;;5.20;99.90;;;;;;8343306;28;20320;-68
2023/04/02 00:27:49;;;;;;;24.40;15.23;;;5.20;99.90;;;;;;8339065;28;20214;-69
2023/04/02 00:31:51;;;;;;;19.27;11.87;;;5.10;99.90;;;;;;8337093;28;20258;-68
2023/04/02 00:35:53;;;;;;;14.13;11.43;;;5.10;99.90;;;;;;8336157;28;20213;-71
2023/04/02 00:40:01;;;;;;;12.80;9.90;;;5.00;99.90;;;;;;8352251;28;20198;-70
2023/04/02 00:44:02;;;;;;;13.33;9.43;;;4.90;99.90;;;;;;8337973;28;20202;-70
2023/04/02 00:48:24;;;;;;;13.17;10.23;;;4.90;99.90;;;;;;8336522;28;20221;-69
2023/04/02 00:52:29;;;;;;;11.90;9.33;;;4.80;99.90;;;;;;8336609;28;20266;-70
2023/04/02 00:56:43;;;;;;;12.20;9.77;;;4.80;99.90;;;;;;8336251;28;20186;-69
2023/04/02 01:00:49;;;;;;;20.60;12.13;;;4.80;99.90;;;;;;8336327;28;20194;-69
2023/04/02 01:04:53;;;;;;;36.03;18.20;;;4.70;99.90;;;;;;8332030;28;20189;-71
2023/04/02 01:08:59;;;;;;;15.97;12.50;;;4.70;99.90;;;;;;8337298;28;20217;-69
2023/04/02 01:13:32;;;;;;;27.27;16.90;;;4.60;99.90;;;;;;8336443;28;20252;-69
2023/04/02 01:18:01;;;;;;;19.47;13.50;;;4.60;99.90;;;;;;8324216;28;20206;-65
2023/04/02 01:22:17;;;;;;;10.83;9.17;;;4.50;99.90;;;;;;8336747;28;20237;-66
2023/04/02 01:26:45;;;;;;;18.67;11.63;;;4.50;99.90;;;;;;8336022;28;20206;-69
2023/04/02 01:30:55;;;;;;;13.13;10.13;;;4.40;99.90;;;;;;8336554;28;20186;-65
2023/04/02 01:34:57;;;;;;;14.87;11.30;;;4.40;99.90;;;;;;8335328;28;20288;-66
2023/04/02 01:39:19;;;;;;;22.53;13.63;;;4.30;99.90;;;;;;8334169;28;20263;-65
2023/04/02 01:43:47;;;;;;;20.23;14.17;;;4.30;99.90;;;;;;8340158;28;20196;-66
2023/04/02 01:47:50;;;;;;;16.90;12.43;;;4.30;99.90;;;;;;8332246;28;20209;-66
2023/04/02 01:51:55;;;;;;;16.70;11.23;;;4.20;99.90;;;;;;8335268;28;20283;-65
2023/04/02 01:55:59;;;;;;;12.80;9.87;;;4.10;99.90;;;;;;8343325;28;20201;-66
2023/04/02 02:00:07;;;;;;;10.17;9.10;;;4.10;99.90;;;;;;8320595;28;20199;-66
2023/04/02 02:04:12;;;;;;;15.07;10.60;;;3.90;99.90;;;;;;8322328;28;20207;-65
2023/04/02 02:08:30;;;;;;;11.20;9.37;;;3.80;99.90;;;;;;8325355;28;20214;-64
2023/04/02 02:12:31;;;;;;;15.00;11.17;;;3.70;99.90;;;;;;8334224;28;20245;-69
2023/04/02 02:16:40;;;;;;;14.47;10.33;;;3.70;99.90;;;;;;8331483;28;20192;-64
2023/04/02 02:20:41;;;;;;;13.80;10.87;;;3.60;99.90;;;;;;8334423;28;20232;-66
2023/04/02 02:24:42;;;;;;;11.43;8.50;;;3.60;99.90;;;;;;8327597;28;20297;-66
2023/04/02 02:28:49;;;;;;;16.47;10.43;;;3.50;99.90;;;;;;8334348;28;20224;-64
2023/04/02 02:33:31;;;;;;;15.10;11.20;;;3.50;99.90;;;;;;8335362;28;20185;-65
2023/04/02 02:37:39;;;;;;;14.77;10.63;;;3.40;99.90;;;;;;8334866;28;20345;-65
2023/04/02 02:41:52;;;;;;;16.70;11.00;;;3.40;99.90;;;;;;8329595;28;20196;-64
2023/04/02 02:45:55;;;;;;;17.57;13.73;;;3.30;99.90;;;;;;8335048;28;20217;-65
2023/04/02 02:50:09;;;;;;;15.67;11.67;;;3.30;99.90;;;;;;8332985;28;20329;-65
2023/04/02 02:54:10;;;;;;;12.60;9.57;;;3.30;99.90;;;;;;8352187;28;20198;-65
2023/04/02 02:58:16;;;;;;;12.20;9.43;;;3.20;99.90;;;;;;8334125;28;20615;-65
2023/04/02 03:02:18;;;;;;;12.03;9.77;;;3.20;99.90;;;;;;8332080;28;20253;-65
2023/04/02 03:06:19;;;;;;;13.07;8.97;;;3.10;99.90;;;;;;8338721;28;20220;-65
2023/04/02 03:10:49;;;;;;;12.27;9.43;;;3.10;99.90;;;;;;8330344;28;20194;-65
2023/04/02 03:15:10;;;;;;;13.23;9.93;;;3.00;99.90;;;;;;8331041;28;20230;-68
2023/04/02 03:19:30;;;;;;;13.20;9.30;;;2.90;99.90;;;;;;8340026;28;20240;-65
2023/04/02 03:24:03;;;;;;;11.00;8.73;;;2.90;99.90;;;;;;8337932;28;20190;-65
2023/04/02 03:28:11;;;;;;;12.20;9.53;;;3.00;99.90;;;;;;8326351;28;20287;-66
2023/04/02 03:32:19;;;;;;;11.83;8.70;;;2.90;99.90;;;;;;8337600;28;20197;-65
2023/04/02 03:36:27;;;;;;;14.27;9.40;;;2.90;99.90;;;;;;8342946;28;20248;-65
2023/04/02 03:40:36;;;;;;;15.27;11.07;;;2.90;99.90;;;;;;8337881;28;20194;-65
2023/04/02 03:44:47;;;;;;;14.97;12.10;;;2.90;99.90;;;;;;8341496;28;20201;-64
2023/04/02 03:48:53;;;;;;;22.37;12.63;;;2.90;99.90;;;;;;8340118;28;20206;-65
2023/04/02 03:52:59;;;;;;;26.47;17.63;;;2.90;99.90;;;;;;8357532;28;20185;-65
2023/04/02 03:57:00;;;;;;;20.50;13.57;;;2.90;99.90;;;;;;8334966;28;20450;-65
2023/04/02 04:01:05;;;;;;;26.93;18.03;;;2.90;99.90;;;;;;8335076;28;20668;-65
2023/04/02 04:05:17;;;;;;;29.47;19.10;;;2.90;99.90;;;;;;8336886;28;20284;-65
2023/04/02 04:09:30;;;;;;;23.10;16.03;;;2.90;99.90;;;;;;8349351;28;20191;-70
2023/04/02 04:13:44;;;;;;;13.83;10.90;;;2.90;99.90;;;;;;8329208;28;20182;-65
2023/04/02 04:17:52;;;;;;;18.73;12.40;;;2.90;99.90;;;;;;8336145;28;20277;-65
2023/04/02 04:22:13;;;;;;;15.70;12.00;;;2.90;99.90;;;;;;8340471;28;20209;-64
2023/04/02 04:26:34;;;;;;;15.37;11.63;;;2.90;99.90;;;;;;8339621;28;20459;-64
2023/04/02 04:30:49;;;;;;;15.23;11.40;;;2.80;99.90;;;;;;8334206;28;20194;-64
2023/04/02 04:34:55;;;;;;;18.30;12.80;;;2.80;99.90;;;;;;8339986;28;20186;-65
2023/04/02 04:39:00;;;;;;;29.53;18.87;;;2.80;99.90;;;;;;8334884;28;20210;-65
2023/04/02 04:43:10;;;;;;;44.37;32.10;;;2.80;99.90;;;;;;8340209;28;20193;-69
2023/04/02 04:47:22;;;;;;;20.80;15.70;;;2.80;99.90;;;;;;8347488;28;20781;-68
2023/04/02 04:51:32;;;;;;;19.17;14.13;;;2.90;99.90;;;;;;8351768;28;20254;-69
2023/04/02 04:55:39;;;;;;;27.30;18.07;;;2.90;99.90;;;;;;8330918;28;20230;-69
2023/04/02 04:59:51;;;;;;;27.23;18.43;;;2.90;99.90;;;;;;8334452;28;20200;-69
2023/04/02 05:04:11;;;;;;;34.33;23.83;;;2.90;99.90;;;;;;8337582;28;20186;-69
2023/04/02 05:08:26;;;;;;;46.83;28.23;;;2.90;99.90;;;;;;8336294;28;20277;-69
2023/04/02 05:12:40;;;;;;;17.77;11.17;;;2.90;99.90;;;;;;8336168;28;20273;-69
2023/04/02 05:16:47;;;;;;;87.90;55.33;;;2.80;99.90;;;;;;8328364;28;20616;-69
2023/04/02 05:21:10;;;;;;;19.70;14.20;;;2.90;99.90;;;;;;8335045;28;20187;-69
2023/04/02 05:25:17;;;;;;;17.23;12.03;;;2.90;99.90;;;;;;8332331;28;20585;-69
2023/04/02 05:29:30;;;;;;;13.70;7.90;;;2.90;99.90;;;;;;8331311;28;20189;-69
2023/04/02 05:33:36;;;;;;;20.87;13.77;;;2.90;99.90;;;;;;8331276;28;20249;-69
2023/04/02 05:37:39;;;;;;;14.83;8.17;;;3.00;99.90;;;;;;8332213;28;20312;-68
2023/04/02 05:41:43;;;;;;;9.53;7.37;;;3.00;99.90;;;;;;8329536;28;20184;-66
2023/04/02 05:45:51;;;;;;;9.37;6.80;;;3.00;99.90;;;;;;8327002;28;20217;-69
2023/04/02 05:50:16;;;;;;;10.30;7.07;;;3.00;99.90;;;;;;8332917;28;20181;-69
2023/04/02 05:54:37;;;;;;;11.70;7.00;;;3.10;99.90;;;;;;8306718;28;20188;-68
2023/04/02 05:58:43;;;;;;;11.53;6.93;;;3.10;99.90;;;;;;8329556;28;20227;-68
2023/04/02 06:02:52;;;;;;;20.17;12.50;;;3.20;99.90;;;;;;8332986;28;20261;-68
2023/04/02 06:06:57;;;;;;;24.73;14.57;;;3.20;99.90;;;;;;8329191;28;20450;-68
2023/04/02 06:11:10;;;;;;;13.97;7.73;;;3.10;99.90;;;;;;8331056;28;20185;-68
2023/04/02 06:15:15;;;;;;;12.57;9.20;;;3.10;99.90;;;;;;8329958;28;20272;-67
2023/04/02 06:19:28;;;;;;;14.50;9.53;;;3.10;99.90;;;;;;8322993;28;20182;-67
2023/04/02 06:24:03;;;;;;;14.87;8.60;;;3.10;99.90;;;;;;8338552;28;20573;-67
2023/04/02 06:28:11;;;;;;;14.40;9.77;;;3.00;99.90;;;;;;8332377;28;20227;-67
2023/04/02 06:32:12;;;;;;;16.10;9.47;;;3.10;99.90;;;;;;8331232;28;20197;-67
2023/04/02 06:36:12;;;;;;;7.37;5.23;;;3.10;99.90;;;;;;8333792;28;20212;-68
2023/04/02 06:40:44;;;;;;;10.97;7.47;;;3.00;99.90;;;;;;8336240;28;20596;-67
2023/04/02 06:44:45;;;;;;;9.73;7.33;;;3.00;99.90;;;;;;8337449;28;20270;-68
2023/04/02 06:48:49;;;;;;;86.23;27.23;;;3.10;99.90;;;;;;8338701;28;20205;-68
2023/04/02 06:52:54;;;;;;;15.40;10.17;;;3.10;99.90;;;;;;8335150;28;20182;-68
2023/04/02 06:56:55;;;;;;;6.63;5.27;;;3.10;99.90;;;;;;8337617;28;20182;-68
2023/04/02 07:00:56;;;;;;;35.30;12.50;;;3.20;99.90;;;;;;8338345;28;20174;-68
2023/04/02 07:05:03;;;;;;;25.50;12.77;;;3.20;99.90;;;;;;8342083;28;20262;-67
2023/04/02 07:09:05;;;;;;;7.70;5.00;;;3.30;99.90;;;;;;8336686;28;20833;-67
2023/04/02 07:13:08;;;;;;;13.57;8.27;;;3.30;99.90;;;;;;8339967;28;20197;-68
2023/04/02 07:17:17;;;;;;;19.10;10.80;;;3.30;99.90;;;;;;8333359;28;20219;-69
2023/04/02 07:21:18;;;;;;;26.45;15.90;;;3.30;99.90;;;;;;8351330;28;20436;-69
2023/04/02 07:25:19;;;;;;;10.63;6.37;;;3.30;99.90;;;;;;8340532;28;20186;-71
2023/04/02 07:29:20;;;;;;;16.37;10.00;;;3.20;99.90;;;;;;8342305;28;20192;-68
2023/04/02 07:33:24;;;;;;;17.20;8.53;;;3.20;99.90;;;;;;8337018;28;20185;-69
2023/04/02 07:37:26;;;;;;;8.77;5.47;;;3.20;99.90;;;;;;8332188;28;20296;-68
2023/04/02 07:41:27;;;;;;;12.70;7.50;;;3.20;99.90;;;;;;8339440;28;20276;-68
2023/04/02 07:45:28;;;;;;;11.17;7.93;;;3.20;99.90;;;;;;8329943;28;20206;-68
2023/04/02 07:49:29;;;;;;;10.97;8.07;;;3.30;99.90;;;;;;8337468;28;20273;-69
2023/04/02 07:53:32;;;;;;;7.77;5.00;;;3.20;99.90;;;;;;8347252;28;20182;-71
2023/04/02 07:57:32;;;;;;;18.33;12.60;;;3.20;99.90;;;;;;8347683;28;20193;-71
2023/04/02 08:01:34;;;;;;;8.50;6.07;;;3.20;99.90;;;;;;8349451;28;20189;-71
2023/04/02 08:05:35;;;;;;;11.03;6.97;;;3.10;99.90;;;;;;8339072;28;20178;-70
2023/04/02 08:09:36;;;;;;;13.47;7.87;;;3.20;99.90;;;;;;8344395;28;20215;-70
2023/04/02 08:13:37;;;;;;;8.77;5.77;;;3.20;99.90;;;;;;8340365;28;20332;-71
2023/04/02 08:17:38;;;;;;;19.03;10.70;;;3.20;99.90;;;;;;8358336;28;20232;-70
2023/04/02 08:21:39;;;;;;;14.93;8.20;;;3.40;99.90;;;;;;8339367;28;20226;-67
2023/04/02 08:25:54;;;;;;;21.47;11.27;;;3.40;33.80;;;;;;8532493;22;20198;-69
2023/04/02 08:29:55;;;;;;;24.57;14.23;;;3.50;1.00;;;;;;8266209;28;20190;-74
2023/04/02 08:33:57;;;;;;;10.93;6.13;;;3.70;1.00;;;;;;8289882;28;20405;-74
2023/04/02 08:37:59;;;;;;;21.03;11.60;;;3.60;1.00;;;;;;8426682;23;20234;-66
2023/04/02 08:42:04;;;;;;;12.03;7.47;;;3.80;1.00;;;;;;8286839;28;20179;-66
2023/04/02 08:46:23;;;;;;;5.03;3.33;;;3.80;1.00;;;;;;8286925;28;20207;-68
2023/04/02 08:50:51;;;;;;;41.57;20.10;;;3.70;1.00;;;;;;8268631;28;20218;-68
2023/04/02 08:54:56;;;;;;;29.10;14.10;;;3.60;35.80;;;;;;8272091;28;20262;-68
2023/04/02 08:59:02;;;;;;;17.50;9.93;;;3.70;20.60;;;;;;8270444;28;20216;-67
2023/04/02 09:03:26;;;;;;;16.97;8.80;;;3.70;23.90;;;;;;8269761;28;20199;-67
2023/04/02 09:07:27;;;;;;;46.93;18.40;;;3.60;1.00;;;;;;8286843;28;20675;-66
2023/04/02 09:11:50;;;;;;;28.63;17.13;;;3.70;1.00;;;;;;8274008;28;20183;-67
2023/04/02 09:16:02;;;;;;;11.87;5.50;;;3.70;1.00;;;;;;8273551;28;20214;-68
2023/04/02 09:20:18;;;;;;;11.47;7.77;;;3.70;1.00;;;;;;8265067;28;20195;-65
2023/04/02 09:24:19;;;;;;;13.47;7.00;;;3.50;1.00;;;;;;8279017;28;20194;-66
2023/04/02 09:28:22;;;;;;;16.83;9.93;;;3.60;1.00;;;;;;8273049;28;20242;-66
2023/04/02 09:32:45;;;;;;;5.73;4.77;;;3.70;1.00;;;;;;8275432;28;20530;-66
2023/04/02 09:36:46;;;;;;;10.53;6.60;;;3.80;1.00;;;;;;8273091;28;20254;-67
2023/04/02 09:40:53;;;;;;;6.20;4.20;;;4.10;1.00;;;;;;8244556;28;20215;-66
2023/04/02 09:45:46;;;;;;;9.73;6.10;;;4.10;99.90;;;;;;8244207;28;20192;-67
2023/04/02 09:55:24;;;;;;;23.10;13.77;;;4.60;99.90;;;;;;8015167;29;20435;-66
2023/04/02 09:59:25;;;;;;;10.47;5.17;;;4.90;99.90;;;;;;8192763;28;20190;-66
2023/04/02 10:03:31;;;;;;;94.17;33.10;;;4.70;99.90;;;;;;8254792;28;20179;-65
2023/04/02 10:07:40;;;;;;;22.90;11.10;;;4.50;99.90;;;;;;8236245;28;20207;-68
2023/04/02 10:11:41;;;;;;;4.83;3.43;;;4.30;99.90;;;;;;8239126;28;20187;-66
2023/04/02 10:15:51;;;;;;;5.30;2.77;;;4.20;99.90;;;;;;8242738;28;20242;-67
2023/04/02 10:20:10;;;;;;;7.57;4.90;;;4.20;99.90;;;;;;8236399;28;20176;-66
2023/04/02 10:24:14;;;;;;;10.13;5.77;;;4.10;99.90;;;;;;8237679;28;20187;-66
2023/04/02 10:28:43;;;;;;;3.57;2.37;;;4.10;99.90;;;;;;8258148;28;20555;-66
2023/04/02 10:32:56;;;;;;;4.43;2.40;;;4.30;99.90;;;;;;8238236;28;20235;-67
2023/04/02 10:37:36;;;;;;;6.67;3.10;;;4.10;99.90;;;;;;8246681;28;20246;-66
2023/04/02 10:41:49;;;;;;;6.40;4.03;;;4.40;99.90;;;;;;8252287;28;20310;-66
2023/04/02 10:46:13;;;;;;;6.63;3.30;;;4.50;99.90;;;;;;8261141;28;20221;-66
2023/04/02 10:50:46;;;;;;;6.93;4.00;;;4.20;99.90;;;;;;8264929;28;20295;-66
2023/04/02 10:54:53;;;;;;;6.20;1.93;;;4.20;99.90;;;;;;8263276;28;20233;-67
2023/04/02 10:58:58;;;;;;;2.90;2.10;;;4.30;99.90;;;;;;8262858;28;20247;-66
2023/04/02 11:03:35;;;;;;;4.13;2.27;;;4.30;99.90;;;;;;8250157;28;20187;-66
2023/04/02 11:07:51;;;;;;;3.63;2.77;;;4.30;99.90;;;;;;8250915;28;20246;-67
2023/04/02 11:11:58;;;;;;;6.67;2.70;;;4.30;99.90;;;;;;8245591;28;20214;-66
2023/04/02 11:15:59;;;;;;;3.77;2.40;;;4.20;99.90;;;;;;8253595;28;20187;-66
2023/04/02 11:20:43;;;;;;;2.83;1.80;;;4.10;99.90;;;;;;8246696;28;20199;-66
2023/04/02 11:24:48;;;;;;;4.10;2.43;;;4.10;99.90;;;;;;8257054;28;20439;-66
2023/04/02 11:28:59;;;;;;;7.10;3.73;;;4.10;99.90;;;;;;8247249;28;20211;-67
2023/04/02 11:33:23;;;;;;;3.10;2.10;;;4.10;99.90;;;;;;8260394;28;20183;-65
2023/04/02 11:37:43;;;;;;;5.63;3.33;;;4.20;99.90;;;;;;8257328;28;20289;-67
2023/04/02 11:42:01;;;;;;;3.60;2.30;;;4.40;99.90;;;;;;8244916;28;20199;-66
2023/04/02 11:46:28;;;;;;;6.53;2.03;;;4.40;99.90;;;;;;8261700;28;20203;-66
2023/04/02 11:50:37;;;;;;;3.93;1.80;;;4.60;99.90;;;;;;8257998;28;20183;-67
2023/04/02 11:54:38;;;;;;;3.00;1.53;;;4.70;99.90;;;;;;8248947;28;20592;-66
2023/04/02 11:59:04;;;;;;;3.63;2.00;;;4.80;99.90;;;;;;8246101;28;20204;-66
2023/04/02 12:03:27;;;;;;;3.23;2.03;;;4.70;99.90;;;;;;8241704;28;20192;-66
2023/04/02 12:07:33;;;;;;;2.47;1.80;;;4.90;99.90;;;;;;8259920;28;20203;-66
2023/04/02 12:11:37;;;;;;;2.37;1.73;;;4.90;99.90;;;;;;8244655;28;20184;-65
2023/04/02 12:15:47;;;;;;;3.67;1.53;;;4.60;99.90;;;;;;8245288;28;20262;-65
2023/04/02 12:19:51;;;;;;;3.43;1.50;;;4.70;99.90;;;;;;8261705;28;20185;-67
2023/04/02 12:23:58;;;;;;;2.40;1.50;;;5.00;99.90;;;;;;8243265;28;20188;-65
2023/04/02 12:28:18;;;;;;;4.63;2.93;;;5.20;99.90;;;;;;8261894;28;20216;-66
2023/04/02 12:32:25;;;;;;;4.80;2.73;;;5.50;99.90;;;;;;8249633;28;20180;-65
2023/04/02 12:36:26;;;;;;;2.40;1.70;;;5.40;94.30;;;;;;8259667;28;20215;-66
2023/04/02 12:40:27;;;;;;;3.63;1.57;;;5.30;99.90;;;;;;8246775;28;20204;-66
2023/04/02 12:44:31;;;;;;;3.50;2.10;;;5.20;82.30;;;;;;8244976;28;20187;-66
2023/04/02 15:49:01;;;;;;;6.97;2.60;;;4.70;99.90;;;;;;8196317;28;20228;-73
2023/04/02 15:53:51;;;;;;;3.07;2.33;;;4.70;99.90;;;;;;8209035;28;20212;-74
2023/04/02 15:58:11;;;;;;;3.50;2.23;;;4.70;99.90;;;;;;8211103;28;20196;-72
2023/04/02 16:08:09;;;;;;;4.27;2.53;;;4.80;99.90;;;;;;8199565;28;20278;-72
2023/04/02 16:12:23;;;;;;;4.47;2.67;;;4.80;99.90;;;;;;8193937;28;20287;-74
2023/04/02 16:21:55;;;;;;;6.47;3.37;;;4.70;99.90;;;;;;8136458;29;20263;-75
2023/04/02 16:26:21;;;;;;;6.07;3.33;;;4.70;99.90;;;;;;8119276;29;20222;-73
2023/04/02 16:36:16;;;;;;;5.60;3.40;;;4.70;99.90;;;;;;7950905;29;20288;-73
2023/04/02 16:46:13;;;;;;;4.00;2.93;;;4.60;99.90;;;;;;8027750;29;20218;-73
2023/04/02 17:00:06;;;;;;;4.07;2.47;;;4.50;99.90;;;;;;8294335;28;20217;-71
2023/04/02 17:09:40;;;;;;;4.93;3.43;;;4.50;99.90;;;;;;8290849;28;20226;-73
2023/04/02 17:19:19;;;;;;;14.07;6.77;;;4.40;99.90;;;;;;8309129;28;20205;-73
2023/04/02 17:23:46;;;;;;;11.30;5.17;;;4.30;99.90;;;;;;8152790;28;20204;-73
2023/04/02 17:28:56;;;;;;;;;;;;;;;;;;;;;
2023/04/02 17:33:16;;;;;;;7.83;4.63;;;4.20;99.90;;;;;;8166002;28;20226;-73
2023/04/02 17:43:25;;;;;;;;;;;;;;;;;;;;;
2023/04/02 17:57:47;;;;;;;5.60;2.87;;;4.00;1.00;;;;;;8278796;23;20265;-70
2023/04/02 18:02:41;;;;;;;;;;;;;;;;;;;;;
2023/04/02 18:07:37;;;;;;;3.40;2.13;;;3.90;10.70;;;;;;8301954;28;20241;-74
2023/04/02 18:12:28;;;;;;;6.30;4.03;;;3.90;40.00;;;;;;8309645;28;20179;-73
2023/04/02 18:17:12;;;;;;;6.63;2.80;;;3.90;84.40;;;;;;8291223;28;20269;-73
2023/04/02 18:22:15;;;;;;;;;;;;;;;;;;;;;
2023/04/02 18:36:29;;;;;;;14.13;5.87;;;3.90;99.90;;;;;;8243886;28;20201;-73
2023/04/02 18:45:59;;;;;;;2.73;1.80;;;3.90;99.90;;;;;;8220044;28;20276;-70
2023/04/02 18:54:55;;;;;;;7.53;3.67;;;3.90;99.90;;;;;;8343202;23;20240;-77
2023/04/02 18:59:29;;;;;;;5.73;3.63;;;3.80;99.90;;;;;;8339066;28;20166;-78
2023/04/02 19:04:17;;;;;;;5.40;3.43;;;3.70;1.00;;;;;;8336629;28;20216;-77
2023/04/02 19:09:06;;;;;;;6.97;4.23;;;3.70;1.00;;;;;;8200355;28;20228;-78
2023/04/02 19:13:19;;;;;;;5.93;3.53;;;3.70;1.00;;;;;;8187036;28;20188;-77
2023/04/02 19:18:06;;;;;;;5.47;3.27;;;3.70;1.00;;;;;;8329501;28;20197;-77
2023/04/02 19:22:45;;;;;;;4.97;3.40;;;3.70;1.00;;;;;;8214006;28;20198;-78
2023/04/02 19:27:00;;;;;;;4.93;2.93;;;3.70;1.00;;;;;;8211446;28;20314;-77
2023/04/02 19:31:19;;;;;;;4.97;2.80;;;3.60;1.00;;;;;;8261830;28;20195;-76
2023/04/02 19:36:01;;;;;;;5.00;2.60;;;3.60;1.00;;;;;;8313434;28;20206;-77
2023/04/02 19:40:19;;;;;;;5.37;2.93;;;3.60;1.00;;;;;;8326880;28;20198;-78
2023/04/02 19:44:21;;;;;;;4.43;2.60;;;3.60;1.00;;;;;;8234285;28;20236;-78
2023/04/02 19:48:28;;;;;;;9.07;4.20;;;3.60;1.00;;;;;;8217466;28;20228;-79
2023/04/02 19:52:48;;;;;;;;;;;;;;;;;;;;;
2023/04/02 19:57:08;;;;;;;11.60;6.43;;;3.60;1.00;;;;;;8247820;28;20242;-79
2023/04/02 20:02:02;;;;;;;41.43;21.70;;;3.60;1.00;;;;;;8253435;28;20199;-78
2023/04/02 20:42:06;;;;;;;8.80;4.70;;;3.40;74.90;;;;;;7817311;30;20217;-78
2023/04/02 20:46:25;;;;;;;31.23;11.03;;;3.30;52.50;;;;;;7868968;29;20294;-77
2023/04/02 20:50:45;;;;;;;;;;;;;;;;;;;;;
2023/04/02 20:59:31;;;;;;;;;;;;;;;;;;;;;
2023/04/02 21:09:18;;;;;;;21.10;12.30;;;2.40;99.90;;;;;;8239185;28;20366;-72
2023/04/02 21:18:47;;;;;;;18.23;10.00;;;2.00;99.90;;;;;;8159279;28;20284;-72
2023/04/02 21:23:47;;;;;;;20.30;11.30;;;2.00;99.90;;;;;;8282440;28;20269;-71
2023/04/02 21:27:59;;;;;;;24.10;10.50;;;1.90;99.90;;;;;;8301409;28;20215;-71
2023/04/02 21:32:00;;;;;;;22.43;10.63;;;1.70;99.90;;;;;;8285918;28;20200;-73
2023/04/02 21:36:28;;;;;;;18.50;6.90;;;1.60;97.60;;;;;;8298394;28;20207;-73
2023/04/02 21:40:32;;;;;;;13.07;5.57;;;1.50;95.00;;;;;;8245546;28;20209;-72
2023/04/02 21:44:42;;;;;;;16.53;5.40;;;1.50;78.00;;;;;;8280267;28;20220;-71
2023/04/02 21:49:01;;;;;;;17.77;7.00;;;1.50;54.90;;;;;;8285536;28;20248;-72
2023/04/02 21:53:20;;;;;;;13.40;6.17;;;1.40;49.00;;;;;;8292800;28;20228;-74
2023/04/02 21:57:24;;;;;;;10.17;4.70;;;1.30;51.50;;;;;;8307299;28;20193;-72
2023/04/02 22:01:58;;;;;;;;;;;;;;;;;;;;;
2023/04/02 22:06:19;;;;;;;11.53;6.67;;;1.10;54.60;;;;;;8329045;28;20202;-74
2023/04/02 22:10:26;;;;;;;14.47;5.23;;;1.00;62.00;;;;;;8321306;28;20190;-71
2023/04/02 22:14:28;;;;;;;12.97;6.77;;;0.80;66.90;;;;;;8324779;28;20193;-71
2023/04/02 22:23:19;;;;;;;5.63;4.40;;;0.60;88.90;;;;;;8244774;28;20217;-71
2023/04/02 22:27:29;;;;;;;6.87;4.07;;;0.50;92.40;;;;;;8330077;28;20206;-71
2023/04/02 22:31:32;;;;;;;5.80;4.03;;;0.50;87.40;;;;;;8311473;28;20257;-71
2023/04/02 22:35:33;;;;;;;8.70;4.90;;;0.40;90.00;;;;;;8330374;28;20202;-71
2023/04/02 22:39:34;;;;;;;11.67;5.90;;;0.50;79.40;;;;;;8315105;28;20317;-71
2023/04/02 22:43:36;;;;;;;8.90;4.50;;;0.40;89.30;;;;;;8330832;28;20178;-71
2023/04/02 22:47:37;;;;;;;4.87;2.40;;;0.30;96.00;;;;;;8320025;28;20241;-71
2023/04/02 22:51:40;;;;;;;7.63;4.17;;;0.20;99.90;;;;;;8340755;23;20406;-76
2023/04/02 22:55:45;;;;;;;4.03;2.23;;;0.20;99.90;;;;;;8341256;28;20297;-76
2023/04/02 22:59:49;;;;;;;6.73;2.70;;;0.10;99.90;;;;;;8340178;28;20198;-77
2023/04/02 23:03:52;;;;;;;6.97;2.90;;;0.00;99.90;;;;;;8337080;28;20197;-77
2023/04/02 23:12:50;;;;;;;6.60;2.93;;;-0.10;99.90;;;;;;8222906;28;20199;-77
2023/04/02 23:16:55;;;;;;;4.57;2.13;;;-0.20;99.90;;;;;;8203099;28;20200;-77
2023/04/02 23:21:06;;;;;;;8.60;3.80;;;-0.20;99.90;;;;;;8228239;28;20282;-77
2023/04/02 23:25:47;;;;;;;12.03;5.27;;;-0.20;99.90;;;;;;8224354;28;20192;-77
2023/04/02 23:30:12;;;;;;;14.37;5.90;;;-0.20;99.90;;;;;;8283716;28;20225;-77
2023/04/02 23:34:35;;;;;;;9.47;4.13;;;-0.20;99.90;;;;;;8336114;28;20186;-77
2023/04/02 23:38:39;;;;;;;6.13;2.27;;;-0.30;99.90;;;;;;8304967;28;20200;-77
2023/04/02 23:42:49;;;;;;;5.03;1.93;;;-0.40;99.90;;;;;;8301355;28;20238;-79
2023/04/02 23:47:06;;;;;;;;;;;;;;;;;;;;;
2023/04/02 23:51:21;;;;;;;3.87;1.87;;;-0.50;99.90;;;;;;8300728;28;20211;-78
2023/04/02 23:55:22;;;;;;;4.33;2.17;;;-0.50;99.90;;;;;;8303455;28;20339;-78
2023/04/02 23:59:36;;;;;;;;;;;;;;;;;;;;;
